Middleton, Idaho
Current Conditions -  °F | °C
As of 8:35 AM on Saturday 22 Nov 2014 (Local Time) from KMAN Reporting Station
Overcast Overcast  
Wind Chill: 37°   Ceiling: 9000
Heat Index: 37°   Visibility: 10mi
Dew Point: 37°   Wind: 3mph
Humidity: 100%   Direction: 20°NNE
Pressure: 29.72"   Gusts: NA
Location:  43.71°N, 116.62°W
Report Text: KMAN 221535Z AUTO 02003KT 10SM FEW048 FEW070 OVC090 03/03 A2972 RMK AO1
Loading
Personal Weather Stations






























Interactive Weather Map New forecast layout! Learn more

10-Day Weather Forecast

Advertisements
Track Severe Weather on mobile